San Antonio, Valles Caldera, New Mexico Weather observations

Data are for 10 minute period ending at time listed.
 Day   Time   Solar   Ave.   Ave.  Ave.  Vector  Max.   Baro.   Total    
  of    of     Rad.   Air    Rel.  Wind   Wind   Wind  Press.  Precip.   
Year   Day            Temp.  Hum.  Speed  Dir.   Gust                    
2014   (MST)  Kw/m2    F      %     mph   deg.    mph    mb.     in.     
-------------------------------------------------------------------------
 328   21:20   0.00   14.5    66    2.7   357     4.8   394.2    0.00 
 328   21:30   0.00   14.2    66    2.3   354     3.6   393.8    0.00 
 328   21:40   0.00   14.5    64    2.3     2     4.2   393.8    0.00 
 328   21:50   0.00   14.0    66    2.1    18     4.2   394.2    0.00 
 328   22:00   0.00   13.0    70    2.2    27     3.6   394.2    0.00 
 328   22:10   0.00   11.9    72    0.3    22     1.8   394.2    0.00 
 328   22:20   0.00   11.2    74    1.5    23     3.0   394.5    0.00 
 328   22:30   0.00   11.5    71    1.2    33     2.4   394.5    0.00 
 328   22:40   0.00   10.7    72    0.9   342     2.4   394.5    0.00 
 328   22:50   0.00    9.9    75    1.0   104     2.4   394.5    0.00 
 328   23:00   0.00    9.8    77    0.5   127     2.4   394.9    0.00 
 328   23:10   0.00    9.0    80    0.3   124     2.4   395.2    0.00 
 328   23:20   0.00    8.8    82    0.4    60     1.8   395.5    0.00 
 328   23:30   0.00    8.3    81    0.1     8     1.2   395.5    0.00 
 328   23:40   0.00    7.9    83    0.7    47     2.4   395.5    0.00 
 328   23:50   0.00    7.6    82    0.0     0     0.0   395.5    0.00 
 329    0:00   0.00    5.7    82    0.0     0     0.0   395.5    0.00 
 329    0:10   0.00    5.7    86    1.6    46     3.6   396.2    0.00 
 329    0:20   0.00    5.9    85    0.2    26     3.0   396.2    0.00 
 329    0:30   0.00    5.2    85    0.0     0     0.0   395.9    0.00 
 329    0:40   0.00    5.6    86    0.0     0     0.0   396.2    0.00 
 329    0:50   0.00    5.1    85    0.0     0     0.0   395.9    0.00 
 329    1:00   0.00    4.9    86    0.0     0     0.0   395.9    0.00 
 329    1:10   0.00    4.3    86    0.0     0     0.0   396.2    0.00 
 329    1:20   0.00    3.6    86    0.0     0     0.0   396.2    0.00 
 329    1:30   0.00    3.1    86    0.0     0     0.0   396.2    0.00 
 329    1:40   0.00    2.6    86    0.0     0     0.0   396.2    0.00 
 329    1:50   0.00    1.9    85    0.0     0     0.0   395.9    0.00 
 329    2:00   0.00    1.5    86    1.5   301     3.6   395.9    0.00 
 329    2:10   0.00    0.6    84    2.0   300     4.2   395.9    0.00 
 329    2:20   0.00    0.2    85    0.3   326     1.8   395.9    0.00 
 329    2:30   0.00    0.5    86    0.0     0     0.0   395.9    0.00 
 329    2:40   0.00    0.9    86    0.6    21     2.4   395.9    0.00 
 329    2:50   0.00    0.9    86    0.0    27     1.2   395.9    0.00 
 329    3:00   0.00    0.9    85    0.1   288     1.2   395.9    0.00 
 329    3:10   0.00   -0.3    83    0.1   304     1.2   395.5    0.00 
 329    3:20   0.00   -0.6    85    0.0     0     0.0   395.9    0.00 
 329    3:30   0.00   -0.6    85    0.0     0     0.0   395.9    0.00 
 329    3:40   0.00   -0.8    85    0.0     0     0.0   395.9    0.00 
 329    3:50   0.00   -1.4    84    0.0   226     1.2   395.9    0.00 
 329    4:00   0.00   -1.6    85    0.0     0     0.0   395.9    0.00 
 329    4:10   0.00   -1.2    85    0.0     0     0.0   395.9    0.00 
 329    4:20   0.00   -0.7    86    0.0     0     0.0   395.9    0.00 
 329    4:30   0.00   -1.0    84    0.0     0     0.0   395.9    0.00 
 329    4:40   0.00   -1.7    83    0.0     0     0.0   395.5    0.00 
 329    4:50   0.00   -1.6    84    0.0     0     0.0   395.5    0.00 
 329    5:00   0.00   -1.8    83    0.7   295     3.0   395.5    0.00 
 329    5:10   0.00   -1.9    84    0.0     0     0.0   395.5    0.00 
 329    5:20   0.00   -1.9    83    0.0     0     0.0   395.5    0.00 
 329    5:30   0.00   -2.4    83    0.0   109     1.2   395.5    0.00 
 329    5:40   0.00   -1.8    84    0.1   108     1.8   395.9    0.00 
 329    5:50   0.00   -1.4    84    0.0   163     1.2   395.9    0.00 
 329    6:00   0.00   -1.7    83    0.1   317     1.8   395.5    0.00 
 329    6:10   0.00   -2.1    83    0.5   132     2.4   395.5    0.00 
 329    6:20   0.00   -2.4    83    0.2   351     1.8   395.5    0.00 
 329    6:30   0.00   -2.3    83    0.5   287     2.4   395.5    0.00 
 329    6:40   0.00   -1.8    83    0.1   239     1.8   395.9    0.00 
 329    6:50   0.00   -3.0    81    0.2   134     1.8   395.2    0.00 
 329    7:00   0.00   -2.9    83    0.1    86     1.8   395.5    0.00 
 329    7:10   0.01   -2.2    84    0.0     0     0.0   395.9    0.00 
 329    7:20   0.01   -1.7    84    0.0   144     1.2   395.9    0.00 
 329    7:30   0.04   -0.7    83    0.0     0     0.0   395.9    0.00 
 329    7:40   0.03    1.2    79    0.0     0     0.0   395.2    0.00 
 329    7:50   0.10    2.2    78    0.0     0     0.0   395.2    0.00 
 329    8:00   0.17    5.8    72    0.6   132     1.8   394.9    0.00 
 329    8:10   0.20    7.4    72    0.9   179     3.6   394.5    0.00 
 329    8:20   0.23    9.6    70    0.7   270     3.0   394.5    0.00 
 329    8:30   0.25   11.1    68    0.3   260     3.0   394.2    0.00 
 329    8:40   0.27   13.5    66    1.8   288     3.6   394.2    0.00 
 329    8:50   0.30   14.8    66    1.0   255     3.0   394.2    0.00 
 329    9:00   0.32   15.7    68    0.4   258     1.8   394.5    0.00 
 329    9:10   0.34   18.3    64    0.2   271     1.8   394.5    0.00 
 329    9:20   0.37   20.1    57    1.0   253     1.8   394.2    0.00 
 329    9:30   0.39   23.3    55    0.2   268     2.4   394.5    0.00 
 329    9:40   0.41   24.8    58    1.4   256     7.2   394.5    0.00 
 329    9:50   0.44   28.6    45    7.0   280    12.5   394.5    0.00 
 329   10:00   0.47   31.6    33    7.1   288    11.9   394.5    0.00 
 329   10:10   0.48   33.0    29    8.0   301    14.3   394.2    0.00 
 329   10:20   0.50   33.0    29   10.5   289    17.3   394.2    0.00 
 329   10:30   0.52   33.2    28   14.6   292    22.7   394.5    0.00 
 329   10:40   0.53   33.3    27   14.2   297    22.1   394.5    0.00 
 329   10:50   0.54   33.5    26   13.6   297    26.2   394.5    0.00 
 329   11:00   0.55   33.6    26   14.5   295    21.5   394.5    0.00 
 329   11:10   0.56   33.8    25   14.2   301    26.2   394.5    0.00 
 329   11:20   0.57   34.7    27   13.7   299    22.1   394.5    0.00 
 329   11:30   0.57   35.2    26   13.7   299    24.5   394.5    0.00 
 329   11:40   0.58   35.3    25   14.9   295    25.0   394.5    0.00 
 329   11:50   0.58   35.7    25   14.3   299    22.7   394.5    0.00 
 329   12:00   0.58   36.7    24   14.3   302    22.7   394.5    0.00 
 329   12:10   0.58   36.5    23   14.9   301    25.0   394.5    0.00 
 329   12:20   0.58   36.9    23   14.5   300    25.6   394.5    0.00 
 329   12:30   0.57   36.9    22   17.3   297    31.0   394.5    0.00 
 329   12:40   0.57   37.8    22   17.7   303    35.8   394.5    0.00 
 329   12:50   0.56   37.4    24   20.7   300    36.4   394.5    0.00 
 329   13:00   0.55   37.4    25   18.9   300    31.6   394.5    0.00 
 329   13:10   0.54   37.2    24   19.4   302    32.8   394.5    0.00 
 329   13:20   0.53   37.1    25   18.8   301    32.2   394.5    0.00 
 329   13:30   0.51   36.9    25   20.0   299    32.8   394.5    0.00 
 329   13:40   0.49   37.3    24   15.9   298    29.8   394.5    0.00 
 329   13:50   0.48   37.5    24   17.3   298    26.2   394.5    0.00 
 329   14:00   0.46   38.2    23   13.7   303    24.5   394.5    0.00 
 329   14:10   0.44   38.7    23   13.1   302    22.7   394.5    0.00 
 329   14:20   0.42   39.2    24   13.9   298    21.5   394.5    0.00 
 329   14:30   0.41   38.9    24   14.7   299    24.5   394.5    0.00 
 329   14:40   0.39   39.4    25   13.4   300    22.1   394.5    0.00 
 329   14:50   0.36   39.6    25   12.5   297    21.5   394.5    0.00 
 329   15:00   0.33   40.2    26   12.8   294    20.3   394.5    0.00 
 329   15:10   0.30   40.7    27   12.9   289    21.5   394.5    0.00 
 329   15:20   0.27   40.6    27   12.6   294    25.6   394.9    0.00 
 329   15:30   0.24   40.0    26   12.1   301    17.3   394.5    0.00 
 329   15:40   0.21   39.3    27   12.5   302    19.7   394.5    0.00 
 329   15:50   0.19   39.2    28   12.4   288    18.5   394.5    0.00 
 329   16:00   0.16   38.5    26   11.2   287    15.5   394.2    0.00 
 329   16:10   0.13   38.0    28   11.1   284    19.1   394.5    0.00 
 329   16:20   0.09   37.9    29    9.6   294    16.7   394.2    0.00 
 329   16:30   0.05   36.8    30    9.9   283    16.1   394.2    0.00 
 329   16:40   0.02   33.8    33   10.3   280    16.1   394.2    0.00 
 329   16:50   0.01   32.0    36    9.5   293    14.3   394.2    0.00 
 329   17:00   0.00   31.1    38    9.7   298    13.7   394.2    0.00 
 329   17:10   0.00   30.4    39   10.3   300    14.3   394.2    0.00 
 329   17:20   0.00   29.9    41    9.7   302    14.9   394.2    0.00 
 329   17:30   0.00   29.7    43   11.2   300    15.5   394.2    0.00 
 329   17:40   0.00   29.5    44   11.5   299    16.1   394.2    0.00 
 329   17:50   0.00   29.3    46   11.1   299    14.9   394.2    0.00 
 329   18:00   0.00   29.2    47   12.6   297    17.9   394.2    0.00 
 329   18:10   0.00   29.3    46   13.9   297    18.5   394.2    0.00 
 329   18:20   0.00   29.1    47   11.3   296    16.1   394.2    0.00 
 329   18:30   0.00   29.4    48   12.8   296    18.5   394.2    0.00 
 329   18:40   0.00   29.9    47   12.4   298    19.1   394.2    0.00 
 329   18:50   0.00   30.1    48   11.8   296    20.3   394.2    0.00 
 329   19:00   0.00   30.2    50   12.5   297    18.5   394.2    0.00 
 329   19:10   0.00   30.4    52   12.6   296    20.3   394.2    0.00 
 329   19:20   0.00   30.7    53   13.6   300    21.5   394.5    0.00 
 329   19:30   0.00   30.6    53   12.2   298    19.7   394.5    0.00 
 329   19:40   0.00   30.7    54   12.1   296    22.7   394.5    0.00 
 329   19:50   0.00   30.6    53    9.4   291    17.3   394.5    0.00 
 329   20:00   0.00   30.2    54    9.8   282    25.0   394.5    0.00 
 329   20:10   0.00   29.8    56    9.0   296    15.5   394.5    0.00 
 329   20:20   0.00   30.5    57   12.7   290    18.5   394.5    0.00 
 329   20:30   0.00   30.9    56   11.8   297    20.9   394.5    0.00 
 329   20:40   0.00   31.3    56   12.6   288    23.9   394.5    0.00 
 329   20:50   0.00   31.7    56   12.1   295    20.9   394.5    0.00 
 329   21:00   0.00   31.3    57    9.5   295    21.5   394.5    0.00 
 329   21:10   0.00   31.3    59    8.7   313    16.7   394.5    0.00 

Return to San Antonio, Valles Caldera graphs page.


Western Regional Climate Center,wrcc@dri.edu